Time;durP1;ratioP1;P1;durP2;ratioP2;P2;SDS_P1;SDS_P2;PMS_P1;PMS_P2;Temp;Humidity;BMP_temperature;BMP_pressure;BME280_temperature;BME280_humidity;BME280_pressure;Samples;Min_cycle;Max_cycle;Signal;HPM_P1;HPM_P2
2022/07/18 00:01:28;;;;;;;5.60;3.95;;;17.60;99.90;;;;;;5069400;28;20425;-61
2022/07/18 00:03:54;;;;;;;4.25;3.85;;;17.60;99.90;;;;;;5069445;28;20049;-61
2022/07/18 00:06:20;;;;;;;4.88;4.22;;;17.60;99.90;;;;;;5069916;28;20415;-61
2022/07/18 00:08:46;;;;;;;5.50;4.85;;;17.60;99.90;;;;;;5068886;28;20041;-61
2022/07/18 00:11:12;;;;;;;5.25;4.10;;;17.50;99.90;;;;;;5069814;28;20460;-61
2022/07/18 00:13:37;;;;;;;3.88;3.58;;;17.50;99.90;;;;;;5069553;28;20037;-61
2022/07/18 00:16:04;;;;;;;5.22;4.40;;;17.50;99.90;;;;;;5068608;28;20040;-61
2022/07/18 00:18:29;;;;;;;3.88;3.50;;;17.40;99.90;;;;;;5069072;28;20518;-61
2022/07/18 00:20:55;;;;;;;6.50;4.00;;;17.40;99.90;;;;;;5069513;28;20040;-61
2022/07/18 00:23:21;;;;;;;6.93;3.88;;;17.30;99.90;;;;;;5069355;28;20500;-61
2022/07/18 00:25:47;;;;;;;5.05;4.20;;;17.30;99.90;;;;;;5069046;28;20032;-61
2022/07/18 00:28:12;;;;;;;5.53;4.03;;;17.30;99.90;;;;;;5069415;28;20052;-61
2022/07/18 00:30:39;;;;;;;4.47;4.07;;;17.30;99.90;;;;;;5068600;28;20186;-61
2022/07/18 00:33:05;;;;;;;6.53;3.85;;;17.20;99.90;;;;;;5068986;28;20186;-61
2022/07/18 00:35:30;;;;;;;4.28;3.90;;;17.20;99.90;;;;;;5069542;28;20052;-61
2022/07/18 00:37:56;;;;;;;6.05;4.70;;;17.10;99.90;;;;;;5066929;28;20071;-61
2022/07/18 00:40:22;;;;;;;5.50;4.95;;;17.10;99.90;;;;;;5069671;28;20052;-61
2022/07/18 00:42:47;;;;;;;4.22;3.88;;;17.00;99.90;;;;;;5068992;28;20139;-61
2022/07/18 00:45:13;;;;;;;7.22;3.70;;;17.00;99.90;;;;;;5068536;28;20040;-61
2022/07/18 00:47:39;;;;;;;5.03;4.05;;;17.00;99.90;;;;;;5068725;28;20032;-61
2022/07/18 00:50:07;;;;;;;6.45;4.95;;;17.00;99.90;;;;;;5068762;28;20066;-61
2022/07/18 00:52:33;;;;;;;9.15;4.43;;;17.00;99.90;;;;;;5068183;28;20487;-61
2022/07/18 00:54:59;;;;;;;6.47;4.43;;;17.10;99.90;;;;;;5068688;28;20102;-61
2022/07/18 00:57:26;;;;;;;6.75;4.47;;;17.00;99.90;;;;;;5068565;28;20500;-61
2022/07/18 01:02:36;;;;;;;5.45;4.75;;;17.00;99.90;;;;;;5068759;28;20052;-61
2022/07/18 01:05:02;;;;;;;4.05;3.70;;;17.00;99.90;;;;;;5068019;28;20083;-61
2022/07/18 01:07:28;;;;;;;6.15;4.18;;;17.00;99.90;;;;;;5068432;28;20108;-61
2022/07/18 01:09:54;;;;;;;4.03;3.45;;;16.90;99.90;;;;;;5068504;28;20559;-61
2022/07/18 01:12:19;;;;;;;6.35;4.15;;;17.00;99.90;;;;;;5068695;28;20380;-61
2022/07/18 01:14:46;;;;;;;6.50;5.53;;;17.00;99.90;;;;;;5067985;28;20048;-61
2022/07/18 01:17:15;;;;;;;4.70;4.18;;;17.00;99.90;;;;;;5068465;28;20597;-61
2022/07/18 01:19:41;;;;;;;5.93;5.03;;;17.00;99.90;;;;;;5067861;28;20419;-61
2022/07/18 01:22:07;;;;;;;5.60;4.30;;;17.00;99.90;;;;;;5067940;28;20047;-61
2022/07/18 01:24:32;;;;;;;5.75;3.95;;;17.20;99.90;;;;;;5068651;28;20436;-61
2022/07/18 01:26:58;;;;;;;4.88;4.40;;;16.90;99.90;;;;;;5067152;28;20060;-61
2022/07/18 01:29:24;;;;;;;4.15;3.65;;;16.90;99.90;;;;;;5067964;28;20066;-61
2022/07/18 01:31:49;;;;;;;4.57;4.00;;;16.80;99.90;;;;;;5068526;28;20036;-61
2022/07/18 01:34:21;;;;;;;4.68;4.18;;;16.80;99.90;;;;;;5067632;28;20049;-61
2022/07/18 01:36:47;;;;;;;5.88;4.85;;;16.90;99.90;;;;;;5067999;28;20441;-61
2022/07/18 01:39:12;;;;;;;5.20;4.70;;;16.80;99.90;;;;;;5068041;28;20056;-61
2022/07/18 01:41:38;;;;;;;6.68;4.22;;;16.80;99.90;;;;;;5067364;28;20041;-61
2022/07/18 01:44:04;;;;;;;4.82;4.32;;;16.90;99.90;;;;;;5067521;28;20043;-61
2022/07/18 01:46:29;;;;;;;5.68;4.15;;;16.80;99.90;;;;;;5067926;28;20101;-61
2022/07/18 01:48:55;;;;;;;4.88;4.25;;;16.70;99.90;;;;;;5066745;28;20502;-61
2022/07/18 01:51:21;;;;;;;4.75;4.35;;;16.80;99.90;;;;;;5068222;28;20043;-61
2022/07/18 01:53:55;;;;;;;6.25;4.63;;;16.70;99.90;;;;;;5067334;28;20044;-61
2022/07/18 01:56:21;;;;;;;7.55;4.60;;;16.70;99.90;;;;;;5067340;28;20056;-61
2022/07/18 01:58:47;;;;;;;6.43;5.05;;;16.70;99.90;;;;;;5067120;28;20391;-61
2022/07/18 02:01:12;;;;;;;5.50;4.82;;;16.60;99.90;;;;;;5067162;28;20580;-61
2022/07/18 02:03:38;;;;;;;7.70;4.20;;;16.60;99.90;;;;;;5067748;28;20036;-61
2022/07/18 02:06:03;;;;;;;6.38;4.80;;;16.50;99.90;;;;;;5067207;28;20403;-61
2022/07/18 02:08:30;;;;;;;5.90;4.78;;;16.50;99.90;;;;;;5066647;28;20613;-61
2022/07/18 02:10:55;;;;;;;5.25;4.75;;;16.50;99.90;;;;;;5067441;28;20052;-61
2022/07/18 02:13:22;;;;;;;5.30;4.05;;;16.50;99.90;;;;;;5067580;28;20045;-61
2022/07/18 02:15:47;;;;;;;5.85;4.80;;;16.40;99.90;;;;;;5066484;28;20039;-61
2022/07/18 02:18:13;;;;;;;6.53;4.88;;;16.40;99.90;;;;;;5067269;28;20052;-61
2022/07/18 02:20:39;;;;;;;7.25;4.80;;;16.50;99.90;;;;;;5066991;28;20037;-61
2022/07/18 02:23:05;;;;;;;6.15;5.10;;;16.40;99.90;;;;;;5066068;28;20044;-62
2022/07/18 02:25:30;;;;;;;6.75;5.05;;;16.50;99.90;;;;;;5066972;28;20049;-62
2022/07/18 02:27:56;;;;;;;8.75;5.30;;;16.50;99.90;;;;;;5067010;28;20041;-61
2022/07/18 02:30:21;;;;;;;5.25;4.65;;;16.50;99.90;;;;;;5066767;28;20037;-61
2022/07/18 02:32:47;;;;;;;5.53;4.85;;;16.60;99.90;;;;;;5066602;28;20401;-61
2022/07/18 02:35:13;;;;;;;7.57;5.25;;;16.50;99.90;;;;;;5067129;28;20276;-61
2022/07/18 02:37:41;;;;;;;5.80;5.22;;;16.50;99.90;;;;;;5065788;28;20487;-61
2022/07/18 02:40:08;;;;;;;6.38;5.20;;;16.50;99.90;;;;;;5066605;28;20562;-61
2022/07/18 02:42:34;;;;;;;6.88;5.38;;;16.40;99.90;;;;;;5066511;28;20040;-61
2022/07/18 02:45:00;;;;;;;7.72;5.35;;;16.40;99.90;;;;;;5065866;28;20052;-61
2022/07/18 02:47:26;;;;;;;8.18;5.90;;;16.40;99.90;;;;;;5067008;28;20040;-61
2022/07/18 02:49:51;;;;;;;8.20;5.47;;;16.40;99.90;;;;;;5066658;28;20036;-61
2022/07/18 02:52:17;;;;;;;8.43;5.68;;;16.40;99.90;;;;;;5065925;28;20044;-61
2022/07/18 02:54:42;;;;;;;9.27;5.78;;;16.40;99.90;;;;;;5066801;28;20066;-61
2022/07/18 02:57:08;;;;;;;9.35;6.20;;;16.30;99.90;;;;;;5066365;28;20559;-61
2022/07/18 02:59:34;;;;;;;9.07;5.35;;;16.30;99.90;;;;;;5065807;28;20403;-61
2022/07/18 03:02:00;;;;;;;7.82;5.40;;;16.30;99.90;;;;;;5066082;28;20119;-61
2022/07/18 03:04:26;;;;;;;6.40;5.80;;;16.30;99.90;;;;;;5065666;28;20059;-61
2022/07/18 03:06:52;;;;;;;6.57;5.22;;;16.30;99.90;;;;;;5066856;28;20041;-61
2022/07/18 03:09:18;;;;;;;7.13;5.78;;;16.30;99.90;;;;;;5066489;28;20124;-61
2022/07/18 03:11:44;;;;;;;7.88;5.90;;;16.30;99.90;;;;;;5065834;28;20051;-61
2022/07/18 03:14:10;;;;;;;6.55;5.72;;;16.30;99.90;;;;;;5066414;28;20048;-61
2022/07/18 03:16:35;;;;;;;6.50;5.60;;;16.30;99.90;;;;;;5066416;28;20052;-61
2022/07/18 03:19:01;;;;;;;7.65;5.80;;;16.40;99.90;;;;;;5065402;28;20044;-61
2022/07/18 03:21:28;;;;;;;9.43;6.25;;;16.40;99.90;;;;;;5066272;28;20154;-61
2022/07/18 03:23:54;;;;;;;8.18;6.32;;;16.20;99.90;;;;;;5066483;28;20059;-61
2022/07/18 03:26:20;;;;;;;7.15;5.30;;;16.20;99.90;;;;;;5064987;28;20048;-61
2022/07/18 03:28:45;;;;;;;7.40;5.88;;;16.20;99.90;;;;;;5066111;28;20059;-61
2022/07/18 03:31:11;;;;;;;9.13;6.35;;;16.20;99.90;;;;;;5066486;28;20116;-61
2022/07/18 03:33:38;;;;;;;8.43;6.50;;;16.10;99.90;;;;;;5065445;28;20048;-61
2022/07/18 03:36:05;;;;;;;11.95;6.30;;;16.20;99.90;;;;;;5065877;28;20137;-61
2022/07/18 03:38:31;;;;;;;11.80;6.13;;;16.10;99.90;;;;;;5066000;28;20499;-61
2022/07/18 03:40:57;;;;;;;7.25;6.13;;;16.10;99.90;;;;;;5065284;28;20044;-61
2022/07/18 03:43:22;;;;;;;7.68;6.22;;;16.10;99.90;;;;;;5066956;28;20044;-61
2022/07/18 03:45:48;;;;;;;10.50;5.97;;;16.00;99.90;;;;;;5048217;28;20119;-61
2022/07/18 03:48:14;;;;;;;8.27;5.80;;;16.00;99.90;;;;;;5065393;28;20441;-61
2022/07/18 03:50:40;;;;;;;8.25;5.78;;;15.90;99.90;;;;;;5065880;28;20131;-61
2022/07/18 03:53:05;;;;;;;6.13;5.53;;;15.80;99.90;;;;;;5065778;28;20088;-61
2022/07/18 03:55:31;;;;;;;10.82;5.80;;;15.90;99.90;;;;;;5065205;28;20067;-61
2022/07/18 03:57:56;;;;;;;7.95;6.60;;;15.80;99.90;;;;;;5065604;28;20102;-61
2022/07/18 04:00:22;;;;;;;9.27;6.40;;;15.70;99.90;;;;;;5066466;28;20406;-61
2022/07/18 04:02:48;;;;;;;9.38;6.25;;;15.70;99.90;;;;;;5064887;28;20047;-61
2022/07/18 04:05:15;;;;;;;9.70;6.55;;;15.70;99.90;;;;;;5065991;28;20051;-61
2022/07/18 04:07:41;;;;;;;7.55;6.30;;;15.70;99.90;;;;;;5064993;28;20045;-61
2022/07/18 04:10:08;;;;;;;9.38;5.88;;;15.70;99.90;;;;;;5065923;28;20388;-61
2022/07/18 04:12:33;;;;;;;8.40;6.38;;;15.60;99.90;;;;;;5068452;28;20044;-61
2022/07/18 04:14:59;;;;;;;6.90;6.20;;;15.70;99.90;;;;;;5068493;28;20974;-61
2022/07/18 04:17:24;;;;;;;7.03;6.18;;;15.60;99.90;;;;;;5069529;28;20044;-61
2022/07/18 04:19:50;;;;;;;8.20;6.10;;;15.70;99.90;;;;;;5069646;28;20056;-61
2022/07/18 04:22:16;;;;;;;7.38;6.57;;;15.70;99.90;;;;;;5068616;28;20257;-61
2022/07/18 04:24:42;;;;;;;7.72;6.15;;;15.70;99.90;;;;;;5069630;28;20036;-61
2022/07/18 04:27:08;;;;;;;11.00;5.60;;;15.70;99.90;;;;;;5069073;28;20070;-61
2022/07/18 04:29:35;;;;;;;8.38;5.65;;;15.70;99.90;;;;;;5068955;28;20052;-61
2022/07/18 04:32:02;;;;;;;7.07;6.13;;;15.80;99.90;;;;;;5069188;28;20056;-61
2022/07/18 04:34:28;;;;;;;8.13;6.03;;;15.80;99.90;;;;;;5069095;28;20292;-61
2022/07/18 04:36:53;;;;;;;7.22;5.38;;;15.90;99.90;;;;;;5068642;28;20518;-61
2022/07/18 04:39:19;;;;;;;7.95;5.75;;;15.90;99.90;;;;;;5068434;28;20407;-61
2022/07/18 04:41:45;;;;;;;6.90;5.53;;;15.90;99.90;;;;;;5069068;28;20163;-61
2022/07/18 04:44:10;;;;;;;6.25;5.30;;;16.00;99.90;;;;;;5068428;28;20063;-61
2022/07/18 04:46:36;;;;;;;6.93;4.93;;;16.00;99.90;;;;;;5069011;28;20047;-61
2022/07/18 04:49:02;;;;;;;6.38;5.30;;;16.10;99.90;;;;;;5069202;28;20048;-61
2022/07/18 04:51:27;;;;;;;6.00;4.88;;;16.10;99.90;;;;;;5068185;28;20045;-61
2022/07/18 04:53:54;;;;;;;8.52;6.15;;;16.10;99.90;;;;;;5069141;28;20158;-61
2022/07/18 04:56:21;;;;;;;8.82;6.47;;;16.00;99.90;;;;;;5069401;28;20060;-61
2022/07/18 04:58:47;;;;;;;6.60;5.25;;;16.20;99.90;;;;;;5067910;28;20403;-61
2022/07/18 05:01:12;;;;;;;12.95;5.97;;;16.10;99.90;;;;;;5068800;28;20036;-61
2022/07/18 05:03:38;;;;;;;6.18;5.07;;;16.20;99.90;;;;;;5068782;28;20049;-61
2022/07/18 05:06:03;;;;;;;6.47;5.30;;;16.20;99.90;;;;;;5067431;28;20056;-61
2022/07/18 05:08:29;;;;;;;8.18;5.80;;;16.20;99.90;;;;;;5068705;28;20043;-61
2022/07/18 05:10:55;;;;;;;10.70;5.88;;;16.20;99.90;;;;;;5068174;28;20055;-61
2022/07/18 05:13:20;;;;;;;7.43;5.65;;;16.30;99.90;;;;;;5068755;28;20090;-61
2022/07/18 05:15:46;;;;;;;8.20;5.55;;;16.30;99.90;;;;;;5067946;28;20033;-61
2022/07/18 05:18:12;;;;;;;9.10;5.30;;;16.30;99.90;;;;;;5067719;28;20041;-61
2022/07/18 05:20:37;;;;;;;6.18;5.28;;;16.30;99.90;;;;;;5068347;28;20044;-61
2022/07/18 05:23:03;;;;;;;9.02;4.95;;;16.30;99.90;;;;;;5067775;28;20440;-61
2022/07/18 05:25:29;;;;;;;8.35;5.38;;;16.40;99.90;;;;;;5067544;28;20395;-61
2022/07/18 05:27:54;;;;;;;4.47;4.05;;;16.40;99.90;;;;;;5067943;28;20557;-61
2022/07/18 05:30:21;;;;;;;11.45;5.15;;;16.40;99.90;;;;;;5068588;28;20041;-61
2022/07/18 05:32:47;;;;;;;8.05;5.40;;;16.40;99.90;;;;;;5065831;28;20292;-61
2022/07/18 05:35:13;;;;;;;9.07;5.20;;;16.50;99.90;;;;;;5068073;28;20071;-61
2022/07/18 05:37:40;;;;;;;6.53;5.45;;;16.50;99.90;;;;;;5067972;28;20045;-61
2022/07/18 05:40:08;;;;;;;7.32;4.40;;;16.50;99.90;;;;;;5067215;28;20084;-61
2022/07/18 05:42:34;;;;;;;7.95;5.38;;;16.50;99.90;;;;;;5068106;28;20032;-61
2022/07/18 05:44:59;;;;;;;11.15;5.15;;;16.60;99.90;;;;;;5067709;28;20430;-61
2022/07/18 05:47:25;;;;;;;5.68;5.10;;;16.60;99.90;;;;;;5067315;28;20090;-61
2022/07/18 05:49:51;;;;;;;9.57;4.80;;;16.60;99.90;;;;;;5068068;28;20043;-61
2022/07/18 05:52:17;;;;;;;6.22;4.68;;;16.80;99.90;;;;;;5067978;28;20079;-61
2022/07/18 05:54:42;;;;;;;8.18;4.70;;;16.60;99.90;;;;;;5067160;28;20071;-61
2022/07/18 05:57:08;;;;;;;5.55;4.38;;;16.70;99.90;;;;;;5066120;28;20491;-61
2022/07/18 05:59:34;;;;;;;9.35;4.88;;;16.70;99.90;;;;;;5067568;28;20477;-61
2022/07/18 06:01:59;;;;;;;5.57;4.63;;;16.80;99.90;;;;;;5066774;28;20040;-61
2022/07/18 06:04:25;;;;;;;5.63;4.07;;;17.00;99.90;;;;;;5067399;28;20072;-61
2022/07/18 06:06:50;;;;;;;6.75;4.22;;;16.90;99.90;;;;;;5067518;28;20045;-61
2022/07/18 06:09:17;;;;;;;6.45;4.18;;;17.00;99.90;;;;;;5066867;28;20044;-61
2022/07/18 06:11:43;;;;;;;8.75;4.10;;;17.00;99.90;;;;;;5067545;28;20090;-61
2022/07/18 06:14:09;;;;;;;3.80;3.38;;;17.10;99.90;;;;;;5067309;28;20072;-61
2022/07/18 06:16:36;;;;;;;5.65;3.92;;;17.20;99.90;;;;;;5066377;28;20501;-61
2022/07/18 06:19:03;;;;;;;4.80;3.72;;;17.30;99.90;;;;;;5066855;28;20111;-61
2022/07/18 06:21:28;;;;;;;4.75;3.55;;;17.40;99.90;;;;;;5066740;28;20076;-61
2022/07/18 06:23:54;;;;;;;6.10;2.88;;;17.50;99.90;;;;;;5067258;28;20079;-61
2022/07/18 06:26:20;;;;;;;10.05;3.67;;;17.60;99.90;;;;;;5067764;28;20051;-61
2022/07/18 06:28:46;;;;;;;4.57;2.75;;;17.70;99.90;;;;;;5066317;28;20502;-61
2022/07/18 06:31:15;;;;;;;6.63;3.05;;;17.80;99.90;;;;;;5066885;28;20526;-61
2022/07/18 06:33:42;;;;;;;5.70;2.75;;;17.90;99.90;;;;;;5067072;28;20037;-61
2022/07/18 06:36:08;;;;;;;3.65;2.63;;;17.90;99.90;;;;;;5065164;28;20036;-61
2022/07/18 06:38:34;;;;;;;4.10;2.42;;;18.00;99.90;;;;;;5066813;28;20518;-61
2022/07/18 06:40:59;;;;;;;5.22;2.65;;;18.10;99.90;;;;;;5067222;28;20037;-61
2022/07/18 06:43:25;;;;;;;4.45;2.42;;;18.10;99.90;;;;;;5066106;28;20044;-61
2022/07/18 06:45:52;;;;;;;4.47;2.75;;;18.10;99.90;;;;;;5066895;28;20040;-61
2022/07/18 06:48:18;;;;;;;3.17;2.60;;;18.20;99.90;;;;;;5066956;28;20052;-61
2022/07/18 06:50:44;;;;;;;4.22;2.75;;;18.20;99.90;;;;;;5066230;28;20047;-61
2022/07/18 06:53:09;;;;;;;4.00;3.00;;;18.30;99.90;;;;;;5066624;28;20052;-61
2022/07/18 06:55:35;;;;;;;7.30;2.75;;;18.40;99.90;;;;;;5066620;28;20097;-61
2022/07/18 06:58:01;;;;;;;6.95;2.65;;;18.50;99.90;;;;;;5065668;28;20102;-61
2022/07/18 07:00:26;;;;;;;5.55;2.92;;;18.60;99.90;;;;;;5066617;28;20033;-61
2022/07/18 07:02:53;;;;;;;3.03;2.58;;;18.60;99.90;;;;;;5066681;28;20069;-62
2022/07/18 07:05:20;;;;;;;5.53;2.72;;;18.70;99.90;;;;;;5065120;28;20037;-62
2022/07/18 07:07:46;;;;;;;5.60;2.95;;;18.70;99.90;;;;;;5066078;28;20475;-61
2022/07/18 07:10:12;;;;;;;6.03;2.65;;;18.80;99.90;;;;;;5066710;28;20028;-61
2022/07/18 07:12:43;;;;;;;5.32;2.40;;;18.90;99.90;;;;;;5065690;28;20048;-61
2022/07/18 07:15:09;;;;;;;10.70;3.25;;;19.00;99.90;;;;;;5066160;28;20098;-61
2022/07/18 07:17:36;;;;;;;17.30;3.35;;;19.10;99.90;;;;;;5065876;28;20048;-62
2022/07/18 07:20:04;;;;;;;13.07;3.42;;;19.20;99.90;;;;;;5066190;28;20056;-62
2022/07/18 07:22:30;;;;;;;6.63;2.40;;;19.30;99.90;;;;;;5066544;28;20143;-62
2022/07/18 07:24:55;;;;;;;4.60;2.35;;;19.30;99.90;;;;;;5065700;28;20143;-62
2022/07/18 07:27:21;;;;;;;3.60;2.22;;;19.60;99.90;;;;;;5066917;28;20039;-62
2022/07/18 07:29:47;;;;;;;3.40;2.10;;;19.80;99.90;;;;;;5065820;28;20541;-62
2022/07/18 07:32:12;;;;;;;4.38;1.80;;;19.90;99.90;;;;;;5065772;28;20036;-62
2022/07/18 07:34:38;;;;;;;4.20;1.83;;;20.10;99.90;;;;;;5066517;28;20379;-61
2022/07/18 07:37:04;;;;;;;3.75;2.10;;;20.20;99.90;;;;;;5065188;28;20521;-61
2022/07/18 07:39:29;;;;;;;3.13;2.05;;;20.30;99.90;;;;;;5065423;28;20506;-61
2022/07/18 07:41:55;;;;;;;3.92;2.28;;;20.40;99.90;;;;;;5066122;28;20072;-61
2022/07/18 07:44:21;;;;;;;4.30;1.95;;;20.50;99.90;;;;;;5066631;28;20513;-61
2022/07/18 07:46:46;;;;;;;6.00;2.40;;;20.50;99.90;;;;;;5066686;28;20058;-62
2022/07/18 07:49:12;;;;;;;2.97;1.80;;;20.50;99.90;;;;;;5070059;28;20399;-62
2022/07/18 07:51:38;;;;;;;5.97;2.03;;;20.60;99.90;;;;;;5070187;28;20479;-62
2022/07/18 07:54:05;;;;;;;4.07;2.22;;;20.70;99.90;;;;;;5069184;28;20045;-62
2022/07/18 07:56:31;;;;;;;4.90;1.75;;;20.80;99.90;;;;;;5069785;28;20056;-62
2022/07/18 07:58:57;;;;;;;4.07;2.50;;;20.90;99.90;;;;;;5069426;28;20056;-62
2022/07/18 08:01:23;;;;;;;2.17;1.98;;;21.10;99.90;;;;;;5069868;28;20052;-62
2022/07/18 08:03:50;;;;;;;5.25;1.98;;;21.20;99.90;;;;;;5051886;28;20487;-62
2022/07/18 08:06:15;;;;;;;5.75;1.48;;;21.30;99.90;;;;;;5069976;28;20056;-62
2022/07/18 08:08:41;;;;;;;2.72;1.77;;;21.40;99.90;;;;;;5068986;28;20032;-62
2022/07/18 08:11:07;;;;;;;12.95;2.00;;;21.50;99.90;;;;;;5069636;28;20127;-62
2022/07/18 08:13:32;;;;;;;2.85;1.30;;;21.60;99.90;;;;;;5069536;28;20402;-62
2022/07/18 08:15:58;;;;;;;3.22;1.55;;;21.80;99.90;;;;;;5068971;28;20090;-62
2022/07/18 08:18:24;;;;;;;3.53;1.48;;;21.90;99.90;;;;;;5069887;28;20450;-62
2022/07/18 08:20:49;;;;;;;6.97;1.92;;;22.10;99.90;;;;;;5068127;28;20043;-62
2022/07/18 08:23:16;;;;;;;2.83;1.40;;;22.20;99.90;;;;;;5069337;28;20049;-62
2022/07/18 08:25:45;;;;;;;4.57;1.98;;;22.40;99.90;;;;;;5069402;28;20064;-62
2022/07/18 08:28:11;;;;;;;2.85;1.77;;;22.50;99.90;;;;;;5068813;28;20171;-62
2022/07/18 08:30:38;;;;;;;4.50;1.67;;;22.70;99.90;;;;;;5069290;28;20041;-61
2022/07/18 08:33:05;;;;;;;2.53;1.45;;;22.90;99.90;;;;;;5068724;28;20516;-62
2022/07/18 08:35:32;;;;;;;3.50;1.60;;;22.90;99.90;;;;;;5068344;28;20407;-62
2022/07/18 08:37:59;;;;;;;4.88;1.65;;;23.00;99.90;;;;;;5068559;28;20033;-62
2022/07/18 08:40:24;;;;;;;3.17;1.45;;;23.00;99.90;;;;;;5069043;28;20075;-62
2022/07/18 08:42:52;;;;;;;3.28;1.27;;;22.90;99.90;;;;;;5068562;28;20048;-62
2022/07/18 08:45:22;;;;;;;3.08;1.35;;;22.90;99.90;;;;;;5069387;28;20037;-62
2022/07/18 08:47:49;;;;;;;2.97;1.52;;;22.80;99.90;;;;;;5068416;28;20071;-62
2022/07/18 08:50:15;;;;;;;4.00;2.03;;;22.80;99.90;;;;;;5068763;28;20373;-62
2022/07/18 08:52:41;;;;;;;1.92;1.55;;;22.80;99.90;;;;;;5069092;28;20037;-62
2022/07/18 08:55:08;;;;;;;4.45;1.65;;;22.80;99.90;;;;;;5068715;28;20062;-62
2022/07/18 08:57:33;;;;;;;2.83;1.30;;;22.80;99.90;;;;;;5067427;28;20114;-62
2022/07/18 08:59:59;;;;;;;8.40;1.38;;;22.70;99.90;;;;;;5068193;28;20482;-62
2022/07/18 09:02:28;;;;;;;4.88;1.48;;;22.70;99.90;;;;;;5068761;28;20578;-62
2022/07/18 09:04:53;;;;;;;6.50;1.80;;;22.70;99.90;;;;;;5068146;28;20127;-62
2022/07/18 09:07:31;;;;;;;4.72;1.35;;;22.80;99.90;;;;;;5069365;28;20127;-62
2022/07/18 09:09:59;;;;;;;7.03;1.80;;;22.90;99.90;;;;;;5068325;28;20119;-62
2022/07/18 09:12:26;;;;;;;4.03;1.80;;;23.00;99.90;;;;;;5068175;28;20045;-62
2022/07/18 09:14:53;;;;;;;4.28;1.90;;;23.00;99.90;;;;;;5068911;28;20170;-62
2022/07/18 09:17:28;;;;;;;3.67;1.65;;;23.10;99.60;;;;;;5068699;28;20578;-62
2022/07/18 09:20:08;;;;;;;2.97;1.10;;;23.20;99.40;;;;;;5068355;28;20091;-62
2022/07/18 09:22:35;;;;;;;4.10;1.17;;;23.30;98.50;;;;;;5068315;28;20052;-62
2022/07/18 09:25:07;;;;;;;4.43;1.52;;;23.50;98.80;;;;;;5067586;28;20037;-62
2022/07/18 09:27:39;;;;;;;2.88;1.13;;;23.70;98.50;;;;;;5068483;28;20049;-62
2022/07/18 09:30:15;;;;;;;1.88;1.55;;;23.80;97.50;;;;;;5068012;28;20041;-62
2022/07/18 09:32:42;;;;;;;3.63;1.35;;;23.90;96.90;;;;;;5067444;28;20507;-62
2022/07/18 09:35:11;;;;;;;2.78;1.20;;;24.00;95.90;;;;;;5067809;28;20075;-62
2022/07/18 09:37:39;;;;;;;3.78;1.90;;;24.00;94.90;;;;;;5068081;28;20131;-62
2022/07/18 09:40:19;;;;;;;2.92;1.45;;;24.10;95.10;;;;;;5065916;28;20056;-62
2022/07/18 09:42:53;;;;;;;3.22;1.38;;;24.10;92.60;;;;;;5069119;28;20052;-62
2022/07/18 09:45:29;;;;;;;3.33;1.58;;;24.20;93.20;;;;;;5068283;28;20426;-67
2022/07/18 09:48:03;;;;;;;5.43;1.92;;;24.30;92.20;;;;;;5068309;28;20435;-63
2022/07/18 09:50:40;;;;;;;2.53;1.63;;;24.30;93.20;;;;;;5069700;28;20041;-63
2022/07/18 09:53:08;;;;;;;3.72;1.88;;;24.50;92.50;;;;;;5068348;28;20067;-63
2022/07/18 09:55:35;;;;;;;2.30;1.45;;;24.50;93.40;;;;;;5067806;28;20537;-63
2022/07/18 09:58:04;;;;;;;5.60;2.00;;;24.60;92.60;;;;;;5069111;28;20076;-63
2022/07/18 10:00:33;;;;;;;3.40;1.63;;;24.70;91.70;;;;;;5066927;28;20131;-63
2022/07/18 10:03:00;;;;;;;10.65;1.92;;;24.80;91.50;;;;;;5068516;28;20040;-63
2022/07/18 10:05:37;;;;;;;4.03;1.52;;;24.90;91.30;;;;;;5068941;28;20071;-63
2022/07/18 10:08:07;;;;;;;5.35;1.90;;;25.00;87.80;;;;;;5067657;28;20133;-63
2022/07/18 10:10:33;;;;;;;2.13;1.42;;;25.10;88.60;;;;;;5068875;28;20036;-63
2022/07/18 10:13:00;;;;;;;3.13;2.00;;;25.10;87.00;;;;;;5068699;28;20384;-63
2022/07/18 10:15:29;;;;;;;3.13;1.60;;;25.20;85.20;;;;;;5067595;28;20052;-63
2022/07/18 10:17:55;;;;;;;4.10;1.88;;;25.20;82.10;;;;;;5067838;28;20075;-63
2022/07/18 10:20:48;;;;;;;1.98;1.60;;;25.20;83.80;;;;;;5065713;28;20073;-63
2022/07/18 10:23:26;;;;;;;6.18;1.73;;;25.30;78.80;;;;;;5059880;28;20056;-63
2022/07/18 10:26:18;;;;;;;2.67;1.63;;;25.40;82.30;;;;;;5068452;28;20029;-63
2022/07/18 10:29:15;;;;;;;5.78;1.85;;;25.50;80.00;;;;;;5067441;28;20052;-63
2022/07/18 10:32:00;;;;;;;2.63;1.33;;;25.70;77.40;;;;;;5063478;28;20101;-63
2022/07/18 10:34:33;;;;;;;11.10;3.05;;;25.80;78.60;;;;;;5067885;28;20419;-66
2022/07/18 10:37:02;;;;;;;3.08;2.10;;;26.00;80.10;;;;;;5065777;28;20115;-61
2022/07/18 10:39:37;;;;;;;3.58;2.15;;;26.10;76.40;;;;;;5067103;28;20139;-60
2022/07/18 10:42:02;;;;;;;5.90;2.72;;;26.20;72.80;;;;;;5066101;28;20122;-60
2022/07/18 10:44:31;;;;;;;10.02;2.40;;;26.30;74.40;;;;;;5067308;28;20080;-61
2022/07/18 10:47:02;;;;;;;5.45;2.20;;;26.40;73.80;;;;;;5066862;28;20047;-60
2022/07/18 10:49:49;;;;;;;7.20;2.22;;;26.50;69.60;;;;;;5066422;28;20072;-60
2022/07/18 10:52:27;;;;;;;6.70;2.33;;;26.50;70.40;;;;;;5067229;28;20045;-60
2022/07/18 10:55:04;;;;;;;8.25;2.28;;;26.60;66.70;;;;;;5067290;28;20048;-60
2022/07/18 10:57:30;;;;;;;3.80;2.55;;;26.60;70.20;;;;;;5066277;28;20139;-60
2022/07/18 11:00:09;;;;;;;5.25;3.22;;;26.70;69.20;;;;;;5066980;28;20052;-60
2022/07/18 11:02:46;;;;;;;2.97;2.35;;;26.80;65.70;;;;;;5066709;28;20086;-60
2022/07/18 11:05:27;;;;;;;4.65;3.00;;;26.90;66.20;;;;;;5067314;28;20075;-60
2022/07/18 11:07:58;;;;;;;3.28;2.45;;;26.90;64.30;;;;;;5067291;28;20052;-60
2022/07/18 11:11:01;;;;;;;3.45;2.22;;;26.90;63.00;;;;;;5066589;28;20593;-60
2022/07/18 11:13:32;;;;;;;2.70;2.08;;;26.90;61.90;;;;;;5067321;28;20083;-61
2022/07/18 11:16:06;;;;;;;4.35;2.40;;;27.00;64.00;;;;;;5067081;28;20402;-60
2022/07/18 11:18:43;;;;;;;4.70;2.55;;;27.10;63.60;;;;;;5066286;28;20124;-60
2022/07/18 11:21:24;;;;;;;4.78;1.95;;;27.20;64.20;;;;;;5066247;28;20055;-60
2022/07/18 11:24:03;;;;;;;4.30;2.58;;;27.30;62.50;;;;;;5073421;28;20142;-61
2022/07/18 11:26:30;;;;;;;3.22;2.65;;;27.40;64.90;;;;;;5076403;28;20043;-60
2022/07/18 11:29:07;;;;;;;3.80;2.85;;;27.50;64.10;;;;;;5075373;28;20067;-60
2022/07/18 11:31:53;;;;;;;6.18;2.78;;;27.60;63.60;;;;;;5066787;28;20108;-61
2022/07/18 11:34:19;;;;;;;4.70;2.22;;;27.70;63.10;;;;;;5067322;28;20049;-61
2022/07/18 11:36:47;;;;;;;3.08;2.42;;;27.80;62.30;;;;;;5066823;28;20051;-61
2022/07/18 11:39:14;;;;;;;4.18;2.55;;;27.80;62.70;;;;;;5065981;28;20083;-61
2022/07/18 11:41:41;;;;;;;3.45;2.47;;;27.80;62.40;;;;;;5066536;28;20369;-61
2022/07/18 11:44:18;;;;;;;4.20;2.35;;;27.80;61.70;;;;;;5066313;28;20044;-61
2022/07/18 11:46:44;;;;;;;3.08;2.40;;;27.90;60.80;;;;;;5065667;28;20545;-61
2022/07/18 11:49:10;;;;;;;4.10;2.70;;;28.00;62.40;;;;;;5066360;28;20483;-61
2022/07/18 11:51:42;;;;;;;5.82;2.72;;;28.10;60.80;;;;;;5066382;28;20055;-61
2022/07/18 11:54:09;;;;;;;3.70;2.80;;;28.10;59.70;;;;;;5065177;28;20066;-61
2022/07/18 11:56:49;;;;;;;7.68;3.47;;;28.10;59.90;;;;;;5065979;28;20065;-61
2022/07/18 11:59:15;;;;;;;5.65;2.42;;;28.20;60.00;;;;;;5065667;28;20491;-61
2022/07/18 12:01:44;;;;;;;3.88;2.58;;;28.20;60.00;;;;;;5066242;28;20055;-61
2022/07/18 12:04:18;;;;;;;2.92;2.60;;;28.30;58.90;;;;;;5065747;28;20483;-61
2022/07/18 12:06:44;;;;;;;6.45;2.80;;;28.30;57.30;;;;;;5065283;28;20072;-61
2022/07/18 12:09:10;;;;;;;3.15;2.42;;;28.40;58.20;;;;;;5065722;28;20411;-61
2022/07/18 12:11:38;;;;;;;4.10;2.70;;;28.50;58.30;;;;;;5066049;28;20060;-61
2022/07/18 12:14:06;;;;;;;3.60;2.40;;;28.50;58.70;;;;;;5064907;28;20052;-61
2022/07/18 12:16:43;;;;;;;4.03;2.40;;;28.60;59.50;;;;;;5065952;28;20090;-61
2022/07/18 12:19:24;;;;;;;3.65;2.63;;;28.80;59.50;;;;;;5065647;28;20131;-61
2022/07/18 12:21:55;;;;;;;4.05;3.03;;;28.90;59.40;;;;;;5065630;28;20044;-61
2022/07/18 12:24:37;;;;;;;3.50;2.40;;;29.00;58.90;;;;;;5066405;28;20044;-61
2022/07/18 12:27:21;;;;;;;5.60;2.97;;;29.00;57.90;;;;;;5064895;28;20080;-61
2022/07/18 12:30:10;;;;;;;4.90;2.75;;;29.00;57.50;;;;;;5065411;28;20097;-61
2022/07/18 12:32:38;;;;;;;5.38;2.17;;;28.90;58.10;;;;;;5064607;28;20048;-61
2022/07/18 12:35:13;;;;;;;6.32;2.55;;;28.90;59.10;;;;;;5068225;28;20052;-61
2022/07/18 12:37:39;;;;;;;4.85;2.50;;;29.00;58.10;;;;;;5069169;28;20041;-61
2022/07/18 12:40:10;;;;;;;4.15;3.00;;;29.10;57.50;;;;;;5069327;28;20092;-61
2022/07/18 12:42:40;;;;;;;3.55;2.88;;;29.20;57.60;;;;;;5068596;28;20048;-61
2022/07/18 12:45:08;;;;;;;4.82;2.33;;;29.20;56.70;;;;;;5069210;28;20057;-61
2022/07/18 12:47:34;;;;;;;4.05;2.75;;;28.90;56.80;;;;;;5069302;28;20037;-60
2022/07/18 12:50:00;;;;;;;5.45;2.38;;;28.70;57.20;;;;;;5068186;28;20055;-61
2022/07/18 12:52:26;;;;;;;4.43;2.55;;;28.50;58.00;;;;;;5069090;28;20388;-61